createdAt,value
2022-10-05T00:01:38.260Z,12.72
2022-10-05T00:04:16.963Z,12.85
2022-10-05T00:06:54.945Z,12.78
2022-10-05T00:09:26.675Z,12.72
2022-10-05T00:12:03.812Z,12.82
2022-10-05T00:14:42.017Z,12.86
2022-10-05T00:17:20.921Z,12.73
2022-10-05T00:19:57.597Z,12.76
2022-10-05T00:22:34.204Z,12.55
2022-10-05T00:25:14.386Z,12.59
2022-10-05T00:27:45.326Z,12.57
2022-10-05T00:30:20.259Z,12.55
2022-10-05T00:32:51.726Z,12.28
2022-10-05T00:35:29.639Z,12.39
2022-10-05T00:38:00.521Z,12.57
2022-10-05T00:40:39.572Z,12.41
2022-10-05T00:43:28.808Z,12.58
2022-10-05T00:46:07.923Z,12.64
2022-10-05T00:48:48.781Z,12.44
2022-10-05T00:51:27.708Z,12.61
2022-10-05T00:54:17.484Z,12.76
2022-10-05T00:57:05.471Z,12.57
2022-10-05T00:59:49.297Z,12.31
2022-10-05T01:02:30.870Z,12.24
2022-10-05T01:05:08.262Z,12.37
2022-10-05T01:07:48.491Z,12.36
2022-10-05T01:10:27.252Z,12.37
2022-10-05T01:13:08.217Z,12.20
2022-10-05T01:15:46.519Z,12.35
2022-10-05T01:18:22.221Z,12.05
2022-10-05T01:21:05.979Z,12.06
2022-10-05T01:24:03.589Z,12.08
2022-10-05T01:27:15.747Z,12.16
2022-10-05T01:29:55.447Z,12.24
2022-10-05T01:32:32.805Z,12.32
2022-10-05T01:35:16.564Z,12.26
2022-10-05T01:37:55.460Z,12.18
2022-10-05T01:40:36.023Z,12.02
2022-10-05T01:43:17.274Z,12.01
2022-10-05T01:45:59.146Z,12.01
2022-10-05T01:48:38.509Z,12.01
2022-10-05T01:51:15.500Z,11.89
2022-10-05T01:53:58.505Z,12.02
2022-10-05T01:56:38.481Z,11.99
2022-10-05T01:59:19.053Z,12.15
2022-10-05T02:02:01.706Z,11.98
2022-10-05T02:05:01.023Z,12.05
2022-10-05T02:07:32.903Z,11.92
2022-10-05T02:10:08.963Z,11.99
2022-10-05T02:12:41.265Z,11.90
2022-10-05T02:15:16.743Z,11.82
2022-10-05T02:17:53.971Z,11.85
2022-10-05T02:20:27.907Z,11.67
2022-10-05T02:23:05.344Z,11.56
2022-10-05T02:25:40.973Z,11.63
2022-10-05T02:28:16.208Z,11.50
2022-10-05T02:30:51.649Z,11.53
2022-10-05T02:33:30.806Z,11.47
2022-10-05T02:36:05.621Z,11.56
2022-10-05T02:38:43.257Z,11.48
2022-10-05T02:41:23.052Z,11.56
2022-10-05T02:44:02.727Z,11.67
2022-10-05T02:46:41.142Z,11.64
2022-10-05T02:49:48.325Z,11.54
2022-10-05T02:52:31.060Z,11.44
2022-10-05T02:55:15.523Z,11.39
2022-10-05T02:57:55.195Z,11.43
2022-10-05T03:00:28.316Z,11.28
2022-10-05T03:03:05.179Z,11.49
2022-10-05T03:05:47.308Z,11.46
2022-10-05T03:08:25.476Z,11.58
2022-10-05T03:11:07.576Z,11.42
2022-10-05T03:13:49.692Z,11.42
2022-10-05T03:17:02.735Z,11.37
2022-10-05T03:20:04.440Z,11.18
2022-10-05T03:22:49.761Z,11.20
2022-10-05T03:25:53.635Z,11.24
2022-10-05T03:32:16.903Z,11.55
2022-10-05T03:34:54.139Z,11.38
2022-10-05T03:37:37.783Z,11.19
2022-10-05T03:40:30.907Z,11.01
2022-10-05T03:43:20.701Z,10.99
2022-10-05T03:46:00.348Z,10.87
2022-10-05T03:48:38.057Z,10.95
2022-10-05T03:51:15.287Z,11.06
2022-10-05T03:53:52.221Z,11.00
2022-10-05T03:56:33.702Z,10.93
2022-10-05T03:59:11.944Z,10.97
2022-10-05T04:01:48.549Z,10.99
2022-10-05T04:04:25.828Z,11.06
2022-10-05T04:06:58.931Z,11.27
2022-10-05T04:09:34.886Z,11.20
2022-10-05T04:12:19.364Z,11.11
2022-10-05T04:14:56.413Z,11.06
2022-10-05T04:17:34.942Z,11.07
2022-10-05T04:20:09.015Z,11.22
2022-10-05T04:22:43.647Z,11.09
2022-10-05T04:25:20.516Z,11.01
2022-10-05T04:28:01.208Z,11.03
2022-10-05T04:30:34.246Z,11.20
2022-10-05T04:33:04.831Z,11.21
2022-10-05T04:35:45.312Z,11.15
2022-10-05T04:38:28.037Z,11.19
2022-10-05T04:41:12.648Z,11.04
2022-10-05T04:43:55.974Z,11.12
2022-10-05T04:46:41.373Z,11.22
2022-10-05T04:49:24.905Z,11.18
2022-10-05T04:51:59.975Z,11.02
2022-10-05T04:54:43.592Z,11.10
2022-10-05T04:57:20.594Z,11.27
2022-10-05T05:00:05.989Z,11.28
2022-10-05T05:02:54.526Z,11.17
2022-10-05T05:05:34.467Z,11.16
2022-10-05T05:08:18.420Z,11.33
2022-10-05T05:11:15.832Z,11.27
2022-10-05T05:14:19.406Z,11.38
2022-10-05T05:17:12.188Z,11.31
2022-10-05T05:19:54.069Z,11.00
2022-10-05T05:22:34.588Z,10.95
2022-10-05T05:25:23.098Z,11.08
2022-10-05T05:27:57.721Z,11.00
2022-10-05T05:30:43.605Z,10.98
2022-10-05T05:33:36.603Z,11.35
2022-10-05T05:36:23.255Z,11.37
2022-10-05T05:39:09.684Z,11.27
2022-10-05T05:41:41.808Z,11.34
2022-10-05T05:44:22.832Z,11.24
2022-10-05T05:47:04.068Z,11.19
2022-10-05T05:57:57.627Z,11.31
2022-10-05T06:00:33.131Z,11.37
2022-10-05T06:03:22.437Z,11.24
2022-10-05T06:06:13.178Z,11.47
2022-10-05T06:08:48.276Z,11.47
2022-10-05T06:11:23.778Z,11.62
2022-10-05T06:13:58.631Z,11.43
2022-10-05T06:16:38.746Z,11.39
2022-10-05T06:19:15.068Z,11.48
2022-10-05T06:21:54.662Z,11.80
2022-10-05T06:24:29.195Z,11.73
2022-10-05T06:27:27.399Z,11.75
2022-10-05T06:30:06.277Z,11.67
2022-10-05T06:32:46.350Z,11.77
2022-10-05T06:35:29.266Z,11.83
2022-10-05T06:38:22.254Z,11.73
2022-10-05T06:41:02.354Z,11.76
2022-10-05T06:43:56.143Z,11.65
2022-10-05T06:46:31.707Z,11.66
2022-10-05T06:49:14.505Z,11.86
2022-10-05T06:51:53.917Z,11.92
2022-10-05T06:54:38.756Z,11.93
2022-10-05T06:57:17.421Z,12.18
2022-10-05T06:59:58.977Z,12.04
2022-10-05T07:02:47.793Z,11.97
2022-10-05T07:09:18.654Z,11.86
2022-10-05T07:12:08.624Z,12.09
2022-10-05T07:14:51.959Z,12.08
2022-10-05T07:17:45.342Z,12.09
2022-10-05T07:20:31.699Z,12.23
2022-10-05T07:23:19.812Z,12.17
2022-10-05T07:25:53.945Z,12.41
2022-10-05T07:28:34.294Z,12.20
2022-10-05T07:31:12.580Z,12.28
2022-10-05T07:33:50.061Z,12.15
2022-10-05T07:36:38.148Z,12.22
2022-10-05T07:39:17.134Z,12.18
2022-10-05T07:41:52.589Z,12.42
2022-10-05T07:44:34.255Z,12.47
2022-10-05T07:47:13.271Z,12.54
2022-10-05T07:49:50.060Z,12.44
2022-10-05T07:52:31.077Z,12.53
2022-10-05T07:55:10.321Z,12.66
2022-10-05T07:57:46.544Z,12.67
2022-10-05T08:00:23.036Z,12.92
2022-10-05T08:02:56.551Z,12.91
2022-10-05T08:05:31.730Z,12.87
2022-10-05T08:08:09.628Z,12.95
2022-10-05T08:10:44.543Z,12.88
2022-10-05T08:13:21.344Z,12.83
2022-10-05T08:16:00.954Z,12.97
2022-10-05T08:18:51.272Z,13.04
2022-10-05T08:21:26.071Z,13.11
2022-10-05T08:24:00.508Z,12.96
2022-10-05T08:26:41.304Z,13.34
2022-10-05T08:29:18.949Z,13.21
2022-10-05T08:31:54.684Z,13.45
2022-10-05T08:34:32.669Z,13.67
2022-10-05T08:37:07.239Z,13.89
2022-10-05T08:39:44.299Z,13.74
2022-10-05T08:42:45.518Z,13.79
2022-10-05T08:45:41.003Z,13.84
2022-10-05T08:48:56.570Z,14.16
2022-10-05T08:51:42.534Z,14.23
2022-10-05T08:54:44.452Z,14.43
2022-10-05T08:57:36.484Z,14.13
2022-10-05T09:00:18.297Z,14.21
2022-10-05T09:03:09.593Z,14.32
2022-10-05T09:06:01.712Z,14.76
2022-10-05T09:09:09.588Z,14.93
2022-10-05T09:11:42.244Z,14.95
2022-10-05T09:15:01.495Z,14.89
2022-10-05T09:18:08.094Z,14.94
2022-10-05T09:20:53.834Z,15.05
2022-10-05T09:23:43.028Z,14.89
2022-10-05T09:26:48.019Z,14.83
2022-10-05T09:29:47.184Z,14.85
2022-10-05T09:32:39.255Z,14.94
2022-10-05T09:35:25.484Z,15.17
2022-10-05T09:38:16.054Z,14.97
2022-10-05T09:41:18.310Z,14.97
2022-10-05T09:44:36.361Z,14.91
2022-10-05T09:47:38.123Z,15.04
2022-10-05T09:50:20.787Z,15.17
2022-10-05T09:53:01.719Z,15.14
2022-10-05T09:56:05.306Z,15.30
2022-10-05T09:59:09.550Z,15.41
2022-10-05T10:01:58.079Z,15.37
2022-10-05T10:04:52.650Z,15.23
2022-10-05T10:07:48.484Z,15.37
2022-10-05T10:10:45.882Z,15.64
2022-10-05T10:13:45.828Z,15.94
2022-10-05T10:16:36.539Z,15.72
2022-10-05T10:19:55.568Z,15.84
2022-10-05T10:23:03.684Z,15.89
2022-10-05T10:25:57.116Z,15.88
2022-10-05T10:29:06.550Z,15.97
2022-10-05T10:31:48.496Z,16.08
2022-10-05T10:34:33.552Z,16.27
2022-10-05T10:37:34.516Z,16.42
2022-10-05T10:40:37.936Z,16.55
2022-10-05T10:43:32.149Z,16.69
2022-10-05T10:46:12.956Z,16.87
2022-10-05T10:48:53.792Z,17.08
2022-10-05T10:51:46.502Z,17.49
2022-10-05T10:54:49.816Z,17.32
2022-10-05T10:57:28.319Z,17.21
2022-10-05T11:00:30.110Z,17.37
2022-10-05T11:03:19.657Z,17.46
2022-10-05T11:06:33.415Z,17.50
2022-10-05T11:09:34.715Z,17.72
2022-10-05T11:12:53.177Z,17.63
2022-10-05T11:15:43.619Z,17.54
2022-10-05T11:18:20.475Z,17.71
2022-10-05T11:21:14.391Z,17.91
2022-10-05T11:24:24.889Z,18.32
2022-10-05T11:30:15.063Z,19.12
2022-10-05T11:33:06.355Z,19.10
2022-10-05T11:35:53.145Z,19.12
2022-10-05T11:38:54.958Z,19.18
2022-10-05T11:41:57.719Z,19.64
2022-10-05T11:44:54.482Z,19.96
2022-10-05T11:47:31.884Z,20.36
2022-10-05T11:50:14.780Z,19.95
2022-10-05T11:52:53.554Z,19.55
2022-10-05T11:55:29.888Z,19.43
2022-10-05T11:58:02.432Z,19.20
2022-10-05T12:00:40.583Z,19.09
2022-10-05T12:03:34.221Z,18.90
2022-10-05T12:06:19.463Z,18.97
2022-10-05T12:09:04.121Z,19.14
2022-10-05T12:11:46.535Z,19.03
2022-10-05T12:14:24.643Z,19.14
2022-10-05T12:17:03.355Z,19.41
2022-10-05T12:19:42.586Z,19.67
2022-10-05T12:22:19.904Z,19.95
2022-10-05T12:25:21.783Z,20.09
2022-10-05T12:27:55.731Z,20.06
2022-10-05T12:30:35.412Z,20.39
2022-10-05T12:33:11.762Z,20.79
2022-10-05T12:36:00.229Z,21.24
2022-10-05T12:39:03.552Z,21.60
2022-10-05T12:41:38.981Z,21.53
2022-10-05T12:44:20.475Z,21.61
2022-10-05T12:50:27.214Z,21.71
2022-10-05T12:53:11.061Z,22.17
2022-10-05T12:55:50.036Z,22.42
2022-10-05T12:58:31.944Z,22.43
2022-10-05T13:01:42.161Z,22.52
2022-10-05T13:04:25.564Z,22.57
2022-10-05T13:07:25.018Z,22.67
2022-10-05T13:10:05.717Z,22.21
2022-10-05T13:12:48.089Z,21.92
2022-10-05T13:15:26.595Z,21.93
2022-10-05T13:18:20.090Z,21.57
2022-10-05T13:20:57.002Z,21.11
2022-10-05T13:23:34.881Z,20.76
2022-10-05T13:26:13.359Z,20.81
2022-10-05T13:28:51.150Z,20.89
2022-10-05T13:31:34.744Z,21.21
2022-10-05T13:34:17.961Z,21.51
2022-10-05T13:37:02.319Z,21.87
2022-10-05T13:39:47.485Z,21.84
2022-10-05T13:42:27.120Z,22.10
2022-10-05T13:45:02.591Z,22.42
2022-10-05T13:47:40.112Z,22.28
2022-10-05T13:50:20.148Z,22.46
2022-10-05T13:52:59.258Z,22.07
2022-10-05T13:55:40.130Z,22.33
2022-10-05T13:58:22.092Z,22.23
2022-10-05T14:00:56.008Z,22.20
2022-10-05T14:03:47.395Z,22.10
2022-10-05T14:06:30.821Z,22.13
2022-10-05T14:09:13.392Z,22.63
2022-10-05T14:23:45.641Z,23.43
2022-10-05T14:26:38.321Z,23.82
2022-10-05T14:29:21.294Z,23.68
2022-10-05T14:31:57.642Z,23.23
2022-10-05T14:34:37.541Z,22.67
2022-10-05T14:37:45.137Z,22.95
2022-10-05T14:45:03.565Z,22.14
2022-10-05T14:52:34.707Z,22.04
2022-10-05T15:08:04.469Z,22.36
2022-10-05T15:33:58.526Z,21.87
2022-10-05T15:37:30.184Z,21.88
2022-10-05T15:40:04.369Z,21.78
2022-10-05T16:24:28.587Z,21.54
2022-10-05T16:39:07.014Z,21.34
2022-10-05T17:00:08.837Z,21.17
2022-10-05T17:02:55.025Z,21.00
2022-10-05T17:05:41.813Z,20.95
2022-10-05T17:08:30.518Z,20.97
2022-10-05T17:11:17.071Z,21.05
2022-10-05T17:14:10.233Z,21.11
2022-10-05T17:16:58.777Z,20.98
2022-10-05T17:19:53.341Z,20.85
2022-10-05T17:22:30.103Z,20.61
2022-10-05T17:25:09.711Z,20.28
2022-10-05T17:27:55.053Z,20.21
2022-10-05T17:30:48.547Z,20.08
2022-10-05T17:33:29.506Z,20.11
2022-10-05T17:36:24.023Z,19.93
2022-10-05T17:39:16.392Z,20.09
2022-10-05T17:41:53.720Z,20.00
2022-10-05T17:44:29.126Z,20.17
2022-10-05T17:47:17.502Z,20.13
2022-10-05T17:50:11.996Z,20.09
2022-10-05T17:53:01.266Z,20.09
2022-10-05T17:56:10.128Z,19.91
2022-10-05T17:59:10.972Z,19.68
2022-10-05T18:02:35.260Z,19.41
2022-10-05T18:05:42.617Z,19.20
2022-10-05T18:08:44.640Z,19.01
2022-10-05T18:11:50.668Z,18.82
2022-10-05T18:44:39.546Z,18.24
2022-10-05T18:48:57.332Z,17.89
2022-10-05T18:51:57.852Z,17.68
2022-10-05T18:54:46.480Z,17.45
2022-10-05T18:57:46.964Z,17.55
2022-10-05T19:04:33.908Z,17.33
2022-10-05T19:07:20.666Z,17.13
2022-10-05T19:10:10.204Z,17.02
2022-10-05T19:13:05.347Z,16.98
2022-10-05T19:15:42.668Z,16.88
2022-10-05T19:18:30.158Z,16.88
2022-10-05T19:21:10.546Z,16.91
2022-10-05T19:23:59.002Z,16.68
2022-10-05T19:26:54.172Z,16.87
2022-10-05T19:30:09.612Z,16.87
2022-10-05T19:33:01.398Z,17.06
2022-10-05T19:35:44.333Z,17.07
2022-10-05T19:38:28.795Z,16.94
2022-10-05T19:41:17.180Z,16.90
2022-10-05T19:44:07.007Z,16.87
2022-10-05T19:46:54.142Z,16.78
2022-10-05T19:50:05.550Z,16.77
2022-10-05T19:52:49.879Z,16.74
2022-10-05T19:55:39.710Z,16.85
2022-10-05T19:58:26.149Z,16.92
2022-10-05T20:01:02.012Z,16.83
2022-10-05T20:03:42.944Z,16.96
2022-10-05T20:06:14.253Z,17.09
2022-10-05T20:12:52.645Z,16.98
2022-10-05T20:15:44.352Z,16.80
2022-10-05T20:18:55.428Z,16.63
2022-10-05T20:21:47.838Z,16.74
2022-10-05T20:24:23.726Z,16.72
2022-10-05T20:30:46.210Z,16.52
2022-10-05T20:33:32.904Z,16.53
2022-10-05T20:36:04.283Z,16.43
2022-10-05T20:38:40.076Z,16.36
2022-10-05T20:41:15.201Z,16.38
2022-10-05T20:43:45.543Z,16.30
2022-10-05T20:46:19.256Z,16.30
2022-10-05T20:48:49.813Z,16.34
2022-10-05T20:51:21.221Z,16.38
2022-10-05T20:54:02.055Z,16.58
2022-10-05T20:56:33.523Z,16.57
2022-10-05T20:59:18.673Z,16.38
2022-10-05T21:01:52.614Z,16.26
2022-10-05T21:04:25.623Z,16.39
2022-10-05T21:06:56.587Z,16.43
2022-10-05T21:09:32.927Z,16.32
2022-10-05T21:12:03.694Z,16.23
2022-10-05T21:14:36.274Z,16.10
2022-10-05T21:17:12.013Z,16.02
2022-10-05T21:19:42.281Z,16.00
2022-10-05T21:22:13.334Z,16.07
2022-10-05T21:24:44.030Z,16.10
2022-10-05T21:27:14.971Z,16.27
2022-10-05T21:29:45.435Z,16.26
2022-10-05T21:32:18.913Z,16.27
2022-10-05T21:34:48.937Z,16.26
2022-10-05T21:37:19.953Z,16.21
2022-10-05T21:39:50.049Z,16.16
2022-10-05T21:42:20.388Z,16.14
2022-10-05T21:44:50.281Z,16.29
2022-10-05T21:47:23.411Z,16.40
2022-10-05T21:49:57.636Z,16.32
2022-10-05T21:52:30.723Z,16.50
2022-10-05T21:55:01.430Z,16.48
2022-10-05T21:57:36.439Z,16.65
2022-10-05T22:00:10.566Z,16.66
2022-10-05T22:02:43.516Z,16.60
2022-10-05T22:05:13.977Z,16.49
2022-10-05T22:07:44.359Z,16.49
2022-10-05T22:10:14.747Z,16.30
2022-10-05T22:12:46.905Z,16.51
2022-10-05T22:15:18.220Z,16.57
2022-10-05T22:17:51.528Z,16.45
2022-10-05T22:20:26.930Z,16.57
2022-10-05T22:23:19.548Z,16.66
2022-10-05T22:25:51.053Z,16.60
2022-10-05T22:28:21.206Z,16.48
2022-10-05T22:30:52.021Z,16.66
2022-10-05T22:33:24.807Z,16.81
2022-10-05T22:35:55.326Z,16.67
2022-10-05T22:38:25.777Z,16.45
2022-10-05T22:40:56.329Z,16.59
2022-10-05T22:43:27.046Z,16.74
2022-10-05T22:45:57.780Z,16.81
2022-10-05T22:48:30.908Z,16.80
2022-10-05T22:51:01.345Z,16.71
2022-10-05T22:53:31.198Z,16.58
2022-10-05T22:56:07.065Z,16.34
2022-10-05T22:58:37.966Z,16.28
2022-10-05T23:01:10.462Z,16.31
2022-10-05T23:03:44.727Z,16.52
2022-10-05T23:06:18.078Z,16.40
2022-10-05T23:08:49.726Z,16.47
2022-10-05T23:11:22.309Z,16.29
2022-10-05T23:13:53.885Z,16.25
2022-10-05T23:16:26.986Z,16.23
2022-10-05T23:19:01.847Z,16.27
2022-10-05T23:21:33.607Z,16.15
2022-10-05T23:24:04.678Z,16.30
2022-10-05T23:26:36.161Z,16.21
2022-10-05T23:29:06.735Z,16.12
2022-10-05T23:31:37.410Z,16.09
2022-10-05T23:34:10.868Z,15.99
2022-10-05T23:36:41.946Z,15.96
2022-10-05T23:39:14.079Z,15.93
2022-10-05T23:41:44.818Z,15.93
2022-10-05T23:44:16.414Z,16.01
2022-10-05T23:46:47.012Z,16.09
2022-10-05T23:49:20.569Z,16.07
2022-10-05T23:51:51.688Z,16.06
2022-10-05T23:54:23.473Z,16.02
2022-10-05T23:56:54.662Z,16.05
2022-10-05T23:59:26.039Z,15.76
